sensor_id;sensor_type;location;lat;lon;timestamp;P1;durP1;ratioP1;P2;durP2;ratioP2
8861;SDS011;4799;50.996;4.754;2023-01-19T00:00:08;30.27;;;27.17;;
8861;SDS011;4799;50.996;4.754;2023-01-19T00:02:36;28.40;;;25.47;;
8861;SDS011;4799;50.996;4.754;2023-01-19T00:05:02;29.03;;;26.03;;
8861;SDS011;4799;50.996;4.754;2023-01-19T00:07:31;27.90;;;24.90;;
8861;SDS011;4799;50.996;4.754;2023-01-19T00:09:57;28.80;;;25.80;;
8861;SDS011;4799;50.996;4.754;2023-01-19T00:12:23;29.03;;;25.90;;
8861;SDS011;4799;50.996;4.754;2023-01-19T00:14:49;27.33;;;24.60;;
8861;SDS011;4799;50.996;4.754;2023-01-19T00:17:15;27.60;;;24.70;;
8861;SDS011;4799;50.996;4.754;2023-01-19T00:19:41;29.13;;;25.97;;
8861;SDS011;4799;50.996;4.754;2023-01-19T00:22:06;28.10;;;25.30;;
8861;SDS011;4799;50.996;4.754;2023-01-19T00:24:32;28.33;;;25.33;;
8861;SDS011;4799;50.996;4.754;2023-01-19T00:26:58;28.17;;;25.37;;
8861;SDS011;4799;50.996;4.754;2023-01-19T00:29:24;28.57;;;25.67;;
8861;SDS011;4799;50.996;4.754;2023-01-19T00:31:49;25.90;;;23.23;;
8861;SDS011;4799;50.996;4.754;2023-01-19T00:34:16;27.50;;;24.70;;
8861;SDS011;4799;50.996;4.754;2023-01-19T00:36:41;26.73;;;23.93;;
8861;SDS011;4799;50.996;4.754;2023-01-19T00:39:07;27.10;;;24.20;;
8861;SDS011;4799;50.996;4.754;2023-01-19T00:41:33;27.20;;;24.40;;
8861;SDS011;4799;50.996;4.754;2023-01-19T00:44:17;25.90;;;23.30;;
8861;SDS011;4799;50.996;4.754;2023-01-19T00:46:43;26.50;;;23.67;;
8861;SDS011;4799;50.996;4.754;2023-01-19T00:49:09;26.80;;;24.10;;
8861;SDS011;4799;50.996;4.754;2023-01-19T00:51:34;25.93;;;23.20;;
8861;SDS011;4799;50.996;4.754;2023-01-19T00:54:00;27.33;;;24.30;;
8861;SDS011;4799;50.996;4.754;2023-01-19T00:56:32;29.13;;;25.33;;
8861;SDS011;4799;50.996;4.754;2023-01-19T00:58:58;27.47;;;24.53;;
8861;SDS011;4799;50.996;4.754;2023-01-19T01:01:24;27.00;;;24.07;;
8861;SDS011;4799;50.996;4.754;2023-01-19T01:03:50;27.40;;;24.50;;
8861;SDS011;4799;50.996;4.754;2023-01-19T01:06:18;24.57;;;21.97;;
8861;SDS011;4799;50.996;4.754;2023-01-19T01:08:44;26.70;;;23.77;;
8861;SDS011;4799;50.996;4.754;2023-01-19T01:11:10;28.63;;;24.30;;
8861;SDS011;4799;50.996;4.754;2023-01-19T01:13:36;26.10;;;23.10;;
8861;SDS011;4799;50.996;4.754;2023-01-19T01:16:01;27.00;;;23.70;;
8861;SDS011;4799;50.996;4.754;2023-01-19T01:18:27;26.87;;;24.03;;
8861;SDS011;4799;50.996;4.754;2023-01-19T01:21:03;27.80;;;24.27;;
8861;SDS011;4799;50.996;4.754;2023-01-19T01:23:31;27.80;;;24.87;;
8861;SDS011;4799;50.996;4.754;2023-01-19T01:25:57;29.73;;;25.20;;
8861;SDS011;4799;50.996;4.754;2023-01-19T01:28:22;27.53;;;24.30;;
8861;SDS011;4799;50.996;4.754;2023-01-19T01:30:51;29.10;;;23.77;;
8861;SDS011;4799;50.996;4.754;2023-01-19T01:33:18;27.10;;;23.77;;
8861;SDS011;4799;50.996;4.754;2023-01-19T01:35:45;27.07;;;24.10;;
8861;SDS011;4799;50.996;4.754;2023-01-19T01:38:14;30.43;;;24.23;;
8861;SDS011;4799;50.996;4.754;2023-01-19T01:40:40;28.20;;;23.53;;
8861;SDS011;4799;50.996;4.754;2023-01-19T01:43:13;30.23;;;25.27;;
8861;SDS011;4799;50.996;4.754;2023-01-19T01:45:42;27.30;;;24.30;;
8861;SDS011;4799;50.996;4.754;2023-01-19T01:48:13;27.20;;;23.60;;
8861;SDS011;4799;50.996;4.754;2023-01-19T01:50:59;26.90;;;23.53;;
8861;SDS011;4799;50.996;4.754;2023-01-19T01:53:50;26.40;;;22.70;;
8861;SDS011;4799;50.996;4.754;2023-01-19T01:56:27;30.03;;;24.37;;
8861;SDS011;4799;50.996;4.754;2023-01-19T01:58:58;28.30;;;24.43;;
8861;SDS011;4799;50.996;4.754;2023-01-19T02:01:29;28.53;;;23.63;;
8861;SDS011;4799;50.996;4.754;2023-01-19T02:04:13;30.33;;;25.27;;
8861;SDS011;4799;50.996;4.754;2023-01-19T02:06:39;30.83;;;24.30;;
8861;SDS011;4799;50.996;4.754;2023-01-19T02:09:23;31.70;;;25.03;;
8861;SDS011;4799;50.996;4.754;2023-01-19T02:12:10;32.43;;;24.63;;
8861;SDS011;4799;50.996;4.754;2023-01-19T02:14:54;28.90;;;24.90;;
8861;SDS011;4799;50.996;4.754;2023-01-19T02:17:20;30.50;;;26.40;;
8861;SDS011;4799;50.996;4.754;2023-01-19T02:19:46;32.90;;;25.53;;
8861;SDS011;4799;50.996;4.754;2023-01-19T02:24:38;30.67;;;25.13;;
8861;SDS011;4799;50.996;4.754;2023-01-19T02:27:04;29.70;;;25.03;;
8861;SDS011;4799;50.996;4.754;2023-01-19T02:29:31;29.27;;;25.50;;
8861;SDS011;4799;50.996;4.754;2023-01-19T02:31:58;34.10;;;26.13;;
8861;SDS011;4799;50.996;4.754;2023-01-19T02:34:24;29.70;;;24.53;;
8861;SDS011;4799;50.996;4.754;2023-01-19T02:36:51;31.17;;;25.50;;
8861;SDS011;4799;50.996;4.754;2023-01-19T02:39:42;30.03;;;25.50;;
8861;SDS011;4799;50.996;4.754;2023-01-19T02:42:12;28.07;;;25.17;;
8861;SDS011;4799;50.996;4.754;2023-01-19T02:44:45;31.70;;;25.80;;
8861;SDS011;4799;50.996;4.754;2023-01-19T02:47:13;28.40;;;25.40;;
8861;SDS011;4799;50.996;4.754;2023-01-19T02:49:39;29.40;;;24.33;;
8861;SDS011;4799;50.996;4.754;2023-01-19T02:52:07;27.10;;;24.30;;
8861;SDS011;4799;50.996;4.754;2023-01-19T02:54:52;29.30;;;24.40;;
8861;SDS011;4799;50.996;4.754;2023-01-19T03:00:22;25.97;;;23.17;;
8861;SDS011;4799;50.996;4.754;2023-01-19T03:08:33;27.83;;;23.33;;
8861;SDS011;4799;50.996;4.754;2023-01-19T03:11:08;27.17;;;23.27;;
8861;SDS011;4799;50.996;4.754;2023-01-19T03:16:20;26.10;;;23.40;;
8861;SDS011;4799;50.996;4.754;2023-01-19T03:19:02;24.93;;;20.43;;
8861;SDS011;4799;50.996;4.754;2023-01-19T03:21:32;23.23;;;20.50;;
8861;SDS011;4799;50.996;4.754;2023-01-19T03:24:02;24.77;;;20.43;;
8861;SDS011;4799;50.996;4.754;2023-01-19T03:26:30;27.83;;;21.20;;
8861;SDS011;4799;50.996;4.754;2023-01-19T03:29:05;23.33;;;20.57;;
8861;SDS011;4799;50.996;4.754;2023-01-19T03:31:32;22.37;;;19.97;;
8861;SDS011;4799;50.996;4.754;2023-01-19T03:34:01;25.67;;;20.90;;
8861;SDS011;4799;50.996;4.754;2023-01-19T03:36:34;28.53;;;21.70;;
8861;SDS011;4799;50.996;4.754;2023-01-19T03:39:04;24.37;;;21.73;;
8861;SDS011;4799;50.996;4.754;2023-01-19T03:41:33;26.30;;;22.40;;
8861;SDS011;4799;50.996;4.754;2023-01-19T03:44:01;26.83;;;22.00;;
8861;SDS011;4799;50.996;4.754;2023-01-19T03:46:30;24.70;;;21.90;;
8861;SDS011;4799;50.996;4.754;2023-01-19T03:48:57;26.17;;;22.80;;
8861;SDS011;4799;50.996;4.754;2023-01-19T03:51:24;28.80;;;23.47;;
8861;SDS011;4799;50.996;4.754;2023-01-19T03:53:50;26.63;;;23.00;;
8861;SDS011;4799;50.996;4.754;2023-01-19T03:56:20;29.17;;;24.87;;
8861;SDS011;4799;50.996;4.754;2023-01-19T03:58:48;25.50;;;22.73;;
8861;SDS011;4799;50.996;4.754;2023-01-19T04:01:14;30.30;;;25.37;;
8861;SDS011;4799;50.996;4.754;2023-01-19T04:03:41;32.67;;;26.20;;
8861;SDS011;4799;50.996;4.754;2023-01-19T04:06:08;30.83;;;25.70;;
8861;SDS011;4799;50.996;4.754;2023-01-19T04:08:34;29.40;;;24.50;;
8861;SDS011;4799;50.996;4.754;2023-01-19T04:11:00;34.50;;;27.40;;
8861;SDS011;4799;50.996;4.754;2023-01-19T04:13:26;32.90;;;26.03;;
8861;SDS011;4799;50.996;4.754;2023-01-19T04:15:54;35.33;;;27.27;;
8861;SDS011;4799;50.996;4.754;2023-01-19T04:18:25;32.43;;;26.70;;
8861;SDS011;4799;50.996;4.754;2023-01-19T04:20:54;35.90;;;28.93;;
8861;SDS011;4799;50.996;4.754;2023-01-19T04:23:23;37.47;;;27.80;;
8861;SDS011;4799;50.996;4.754;2023-01-19T04:25:49;35.77;;;26.77;;
8861;SDS011;4799;50.996;4.754;2023-01-19T04:28:20;37.43;;;27.73;;
8861;SDS011;4799;50.996;4.754;2023-01-19T04:30:48;31.30;;;26.77;;
8861;SDS011;4799;50.996;4.754;2023-01-19T04:33:15;41.07;;;30.00;;
8861;SDS011;4799;50.996;4.754;2023-01-19T04:35:41;36.20;;;28.70;;
8861;SDS011;4799;50.996;4.754;2023-01-19T04:38:09;35.50;;;27.93;;
8861;SDS011;4799;50.996;4.754;2023-01-19T04:40:34;38.30;;;28.50;;
8861;SDS011;4799;50.996;4.754;2023-01-19T04:43:00;33.80;;;27.77;;
8861;SDS011;4799;50.996;4.754;2023-01-19T04:45:26;34.60;;;27.77;;
8861;SDS011;4799;50.996;4.754;2023-01-19T04:47:52;35.77;;;28.00;;
8861;SDS011;4799;50.996;4.754;2023-01-19T04:50:18;34.13;;;28.63;;
8861;SDS011;4799;50.996;4.754;2023-01-19T04:52:44;35.03;;;27.63;;
8861;SDS011;4799;50.996;4.754;2023-01-19T04:55:10;35.00;;;29.20;;
8861;SDS011;4799;50.996;4.754;2023-01-19T04:57:36;39.43;;;29.90;;
8861;SDS011;4799;50.996;4.754;2023-01-19T05:00:03;37.70;;;29.17;;
8861;SDS011;4799;50.996;4.754;2023-01-19T05:02:31;39.07;;;29.30;;
8861;SDS011;4799;50.996;4.754;2023-01-19T05:04:57;36.23;;;28.87;;
8861;SDS011;4799;50.996;4.754;2023-01-19T05:07:23;37.30;;;29.27;;
8861;SDS011;4799;50.996;4.754;2023-01-19T05:09:48;37.93;;;28.70;;
8861;SDS011;4799;50.996;4.754;2023-01-19T05:12:14;38.97;;;29.37;;
8861;SDS011;4799;50.996;4.754;2023-01-19T05:14:40;40.80;;;29.17;;
8861;SDS011;4799;50.996;4.754;2023-01-19T05:17:07;41.17;;;29.87;;
8861;SDS011;4799;50.996;4.754;2023-01-19T05:19:33;41.83;;;30.83;;
8861;SDS011;4799;50.996;4.754;2023-01-19T05:22:00;36.80;;;29.87;;
8861;SDS011;4799;50.996;4.754;2023-01-19T05:24:29;37.80;;;29.17;;
8861;SDS011;4799;50.996;4.754;2023-01-19T05:26:56;41.10;;;30.50;;
8861;SDS011;4799;50.996;4.754;2023-01-19T05:29:22;38.63;;;30.57;;
8861;SDS011;4799;50.996;4.754;2023-01-19T05:31:48;38.47;;;30.37;;
8861;SDS011;4799;50.996;4.754;2023-01-19T05:34:13;38.13;;;29.90;;
8861;SDS011;4799;50.996;4.754;2023-01-19T05:36:39;37.67;;;29.90;;
8861;SDS011;4799;50.996;4.754;2023-01-19T05:39:06;40.73;;;30.03;;
8861;SDS011;4799;50.996;4.754;2023-01-19T05:41:31;41.83;;;31.37;;
8861;SDS011;4799;50.996;4.754;2023-01-19T05:43:57;44.33;;;32.30;;
8861;SDS011;4799;50.996;4.754;2023-01-19T05:46:23;46.53;;;33.10;;
8861;SDS011;4799;50.996;4.754;2023-01-19T05:48:49;43.20;;;30.73;;
8861;SDS011;4799;50.996;4.754;2023-01-19T05:51:15;46.30;;;32.73;;
8861;SDS011;4799;50.996;4.754;2023-01-19T05:53:41;46.60;;;33.93;;
8861;SDS011;4799;50.996;4.754;2023-01-19T05:56:07;45.53;;;33.70;;
8861;SDS011;4799;50.996;4.754;2023-01-19T05:58:35;55.37;;;35.83;;
8861;SDS011;4799;50.996;4.754;2023-01-19T06:01:07;49.80;;;34.77;;
8861;SDS011;4799;50.996;4.754;2023-01-19T06:03:34;52.23;;;35.87;;
8861;SDS011;4799;50.996;4.754;2023-01-19T06:06:01;47.13;;;34.93;;
8861;SDS011;4799;50.996;4.754;2023-01-19T06:08:28;49.97;;;36.43;;
8861;SDS011;4799;50.996;4.754;2023-01-19T06:10:54;56.67;;;37.37;;
8861;SDS011;4799;50.996;4.754;2023-01-19T06:13:19;54.40;;;38.23;;
8861;SDS011;4799;50.996;4.754;2023-01-19T06:15:45;55.27;;;38.80;;
8861;SDS011;4799;50.996;4.754;2023-01-19T06:18:11;53.90;;;38.03;;
8861;SDS011;4799;50.996;4.754;2023-01-19T06:20:40;57.50;;;39.70;;
8861;SDS011;4799;50.996;4.754;2023-01-19T06:23:06;58.03;;;38.97;;
8861;SDS011;4799;50.996;4.754;2023-01-19T06:25:32;57.47;;;39.87;;
8861;SDS011;4799;50.996;4.754;2023-01-19T06:27:58;59.13;;;38.33;;
8861;SDS011;4799;50.996;4.754;2023-01-19T06:30:24;54.07;;;37.90;;
8861;SDS011;4799;50.996;4.754;2023-01-19T06:32:51;63.30;;;39.17;;
8861;SDS011;4799;50.996;4.754;2023-01-19T06:35:17;59.07;;;40.03;;
8861;SDS011;4799;50.996;4.754;2023-01-19T06:37:43;60.57;;;38.90;;
8861;SDS011;4799;50.996;4.754;2023-01-19T06:40:09;61.27;;;40.00;;
8861;SDS011;4799;50.996;4.754;2023-01-19T06:42:36;65.27;;;41.90;;
8861;SDS011;4799;50.996;4.754;2023-01-19T06:45:02;66.70;;;42.50;;
8861;SDS011;4799;50.996;4.754;2023-01-19T06:47:28;67.70;;;42.57;;
8861;SDS011;4799;50.996;4.754;2023-01-19T06:49:54;65.47;;;41.63;;
8861;SDS011;4799;50.996;4.754;2023-01-19T06:52:20;63.23;;;41.30;;
8861;SDS011;4799;50.996;4.754;2023-01-19T06:54:46;62.67;;;41.10;;
8861;SDS011;4799;50.996;4.754;2023-01-19T06:57:12;62.43;;;40.50;;
8861;SDS011;4799;50.996;4.754;2023-01-19T06:59:38;65.63;;;41.20;;
8861;SDS011;4799;50.996;4.754;2023-01-19T07:02:04;66.73;;;42.93;;
8861;SDS011;4799;50.996;4.754;2023-01-19T07:04:30;70.03;;;44.83;;
8861;SDS011;4799;50.996;4.754;2023-01-19T07:06:56;66.97;;;42.70;;
8861;SDS011;4799;50.996;4.754;2023-01-19T07:09:22;60.40;;;40.43;;
8861;SDS011;4799;50.996;4.754;2023-01-19T07:11:49;70.33;;;41.73;;
8861;SDS011;4799;50.996;4.754;2023-01-19T07:14:15;70.63;;;44.37;;
8861;SDS011;4799;50.996;4.754;2023-01-19T07:16:41;63.73;;;40.03;;
8861;SDS011;4799;50.996;4.754;2023-01-19T07:19:07;68.67;;;41.70;;
8861;SDS011;4799;50.996;4.754;2023-01-19T07:21:35;73.47;;;44.37;;
8861;SDS011;4799;50.996;4.754;2023-01-19T07:24:00;63.53;;;41.40;;
8861;SDS011;4799;50.996;4.754;2023-01-19T07:26:26;60.47;;;39.03;;
8861;SDS011;4799;50.996;4.754;2023-01-19T07:28:52;68.07;;;41.53;;
8861;SDS011;4799;50.996;4.754;2023-01-19T07:31:18;61.70;;;41.23;;
8861;SDS011;4799;50.996;4.754;2023-01-19T07:33:45;73.43;;;43.83;;
8861;SDS011;4799;50.996;4.754;2023-01-19T07:36:11;69.00;;;42.73;;
8861;SDS011;4799;50.996;4.754;2023-01-19T07:38:37;70.93;;;43.50;;
8861;SDS011;4799;50.996;4.754;2023-01-19T07:41:06;73.30;;;43.67;;
8861;SDS011;4799;50.996;4.754;2023-01-19T07:43:33;70.23;;;42.83;;
8861;SDS011;4799;50.996;4.754;2023-01-19T07:46:00;74.57;;;44.10;;
8861;SDS011;4799;50.996;4.754;2023-01-19T07:48:28;64.60;;;42.13;;
8861;SDS011;4799;50.996;4.754;2023-01-19T07:51:00;68.30;;;42.53;;
8861;SDS011;4799;50.996;4.754;2023-01-19T07:53:29;67.80;;;41.23;;
8861;SDS011;4799;50.996;4.754;2023-01-19T07:55:56;64.63;;;42.47;;
8861;SDS011;4799;50.996;4.754;2023-01-19T07:58:23;64.67;;;42.33;;
8861;SDS011;4799;50.996;4.754;2023-01-19T08:00:49;58.90;;;40.73;;
8861;SDS011;4799;50.996;4.754;2023-01-19T08:03:15;60.33;;;40.73;;
8861;SDS011;4799;50.996;4.754;2023-01-19T08:05:41;69.37;;;41.70;;
8861;SDS011;4799;50.996;4.754;2023-01-19T08:08:07;63.80;;;40.43;;
8861;SDS011;4799;50.996;4.754;2023-01-19T08:10:35;67.40;;;42.60;;
8861;SDS011;4799;50.996;4.754;2023-01-19T08:13:01;66.83;;;41.33;;
8861;SDS011;4799;50.996;4.754;2023-01-19T08:15:27;70.07;;;43.87;;
8861;SDS011;4799;50.996;4.754;2023-01-19T08:20:23;72.13;;;43.63;;
8861;SDS011;4799;50.996;4.754;2023-01-19T08:22:49;71.67;;;43.90;;
8861;SDS011;4799;50.996;4.754;2023-01-19T08:25:15;68.27;;;43.30;;
8861;SDS011;4799;50.996;4.754;2023-01-19T08:27:42;73.57;;;44.87;;
8861;SDS011;4799;50.996;4.754;2023-01-19T08:30:08;65.63;;;43.17;;
8861;SDS011;4799;50.996;4.754;2023-01-19T08:32:35;73.00;;;45.20;;
8861;SDS011;4799;50.996;4.754;2023-01-19T08:35:00;62.60;;;40.80;;
8861;SDS011;4799;50.996;4.754;2023-01-19T08:37:26;71.23;;;44.03;;
8861;SDS011;4799;50.996;4.754;2023-01-19T08:39:52;66.60;;;43.70;;
8861;SDS011;4799;50.996;4.754;2023-01-19T08:42:18;65.10;;;43.07;;
8861;SDS011;4799;50.996;4.754;2023-01-19T08:44:43;62.70;;;42.53;;
8861;SDS011;4799;50.996;4.754;2023-01-19T08:47:09;68.50;;;43.90;;
8861;SDS011;4799;50.996;4.754;2023-01-19T08:49:35;72.17;;;45.47;;
8861;SDS011;4799;50.996;4.754;2023-01-19T08:52:01;71.83;;;44.03;;
8861;SDS011;4799;50.996;4.754;2023-01-19T08:54:27;62.33;;;42.50;;
8861;SDS011;4799;50.996;4.754;2023-01-19T08:56:53;70.67;;;45.93;;
8861;SDS011;4799;50.996;4.754;2023-01-19T08:59:18;69.30;;;42.60;;
8861;SDS011;4799;50.996;4.754;2023-01-19T09:01:44;60.77;;;41.63;;
8861;SDS011;4799;50.996;4.754;2023-01-19T09:04:10;63.77;;;42.10;;
8861;SDS011;4799;50.996;4.754;2023-01-19T09:06:35;63.63;;;42.83;;
8861;SDS011;4799;50.996;4.754;2023-01-19T09:09:01;65.17;;;43.70;;
8861;SDS011;4799;50.996;4.754;2023-01-19T09:11:28;57.97;;;40.57;;
8861;SDS011;4799;50.996;4.754;2023-01-19T09:13:54;59.13;;;39.27;;
8861;SDS011;4799;50.996;4.754;2023-01-19T09:16:21;54.37;;;38.90;;
8861;SDS011;4799;50.996;4.754;2023-01-19T09:18:47;58.20;;;39.20;;
8861;SDS011;4799;50.996;4.754;2023-01-19T09:21:13;55.63;;;38.43;;
8861;SDS011;4799;50.996;4.754;2023-01-19T09:23:39;52.37;;;36.77;;
8861;SDS011;4799;50.996;4.754;2023-01-19T09:26:05;53.80;;;37.00;;
8861;SDS011;4799;50.996;4.754;2023-01-19T09:28:31;52.50;;;35.70;;
8861;SDS011;4799;50.996;4.754;2023-01-19T09:30:57;48.83;;;35.80;;
8861;SDS011;4799;50.996;4.754;2023-01-19T09:33:23;50.00;;;36.00;;
8861;SDS011;4799;50.996;4.754;2023-01-19T09:35:49;48.43;;;34.37;;
8861;SDS011;4799;50.996;4.754;2023-01-19T09:38:16;43.27;;;32.43;;
8861;SDS011;4799;50.996;4.754;2023-01-19T09:40:44;44.70;;;31.50;;
8861;SDS011;4799;50.996;4.754;2023-01-19T09:43:39;42.93;;;31.43;;
8861;SDS011;4799;50.996;4.754;2023-01-19T09:46:10;38.77;;;29.60;;
8861;SDS011;4799;50.996;4.754;2023-01-19T09:48:48;43.80;;;31.03;;
8861;SDS011;4799;50.996;4.754;2023-01-19T09:53:47;38.77;;;28.87;;
8861;SDS011;4799;50.996;4.754;2023-01-19T09:56:14;39.63;;;29.07;;
8861;SDS011;4799;50.996;4.754;2023-01-19T09:58:42;39.87;;;28.87;;
8861;SDS011;4799;50.996;4.754;2023-01-19T10:01:14;40.87;;;29.20;;
8861;SDS011;4799;50.996;4.754;2023-01-19T10:06:37;39.73;;;28.03;;
8861;SDS011;4799;50.996;4.754;2023-01-19T10:09:28;36.17;;;27.80;;
8861;SDS011;4799;50.996;4.754;2023-01-19T10:20:32;35.10;;;27.40;;
8861;SDS011;4799;50.996;4.754;2023-01-19T10:23:03;36.50;;;27.33;;
8861;SDS011;4799;50.996;4.754;2023-01-19T10:25:41;38.03;;;27.03;;
8861;SDS011;4799;50.996;4.754;2023-01-19T10:28:07;33.63;;;25.57;;
8861;SDS011;4799;50.996;4.754;2023-01-19T10:30:35;32.37;;;24.73;;
8861;SDS011;4799;50.996;4.754;2023-01-19T10:33:00;29.40;;;23.50;;
8861;SDS011;4799;50.996;4.754;2023-01-19T10:35:27;33.90;;;24.17;;
8861;SDS011;4799;50.996;4.754;2023-01-19T10:37:55;30.53;;;22.97;;
8861;SDS011;4799;50.996;4.754;2023-01-19T10:42:50;32.00;;;23.07;;
8861;SDS011;4799;50.996;4.754;2023-01-19T10:45:18;31.67;;;22.13;;
8861;SDS011;4799;50.996;4.754;2023-01-19T10:47:46;29.53;;;21.53;;
8861;SDS011;4799;50.996;4.754;2023-01-19T10:50:32;31.10;;;21.13;;
8861;SDS011;4799;50.996;4.754;2023-01-19T10:53:02;29.23;;;20.97;;
8861;SDS011;4799;50.996;4.754;2023-01-19T10:57:59;28.60;;;20.43;;
8861;SDS011;4799;50.996;4.754;2023-01-19T11:03:01;27.93;;;19.27;;
8861;SDS011;4799;50.996;4.754;2023-01-19T11:05:33;25.37;;;19.13;;
8861;SDS011;4799;50.996;4.754;2023-01-19T11:07:59;29.40;;;20.50;;
8861;SDS011;4799;50.996;4.754;2023-01-19T11:10:26;26.67;;;19.70;;
8861;SDS011;4799;50.996;4.754;2023-01-19T11:13:03;28.47;;;19.77;;
8861;SDS011;4799;50.996;4.754;2023-01-19T11:15:41;25.93;;;19.33;;
8861;SDS011;4799;50.996;4.754;2023-01-19T11:18:17;21.10;;;17.40;;
8861;SDS011;4799;50.996;4.754;2023-01-19T11:20:51;26.37;;;18.50;;
8861;SDS011;4799;50.996;4.754;2023-01-19T11:23:30;24.53;;;18.37;;
8861;SDS011;4799;50.996;4.754;2023-01-19T11:25:59;23.70;;;18.00;;
8861;SDS011;4799;50.996;4.754;2023-01-19T11:28:33;27.53;;;18.13;;
8861;SDS011;4799;50.996;4.754;2023-01-19T11:33:47;22.83;;;17.70;;
8861;SDS011;4799;50.996;4.754;2023-01-19T11:36:20;26.10;;;18.53;;
8861;SDS011;4799;50.996;4.754;2023-01-19T11:38:50;24.27;;;18.70;;
8861;SDS011;4799;50.996;4.754;2023-01-19T11:41:19;26.35;;;20.17;;
8861;SDS011;4799;50.996;4.754;2023-01-19T11:44:04;25.67;;;17.83;;
8861;SDS011;4799;50.996;4.754;2023-01-19T11:46:45;24.50;;;17.23;;
8861;SDS011;4799;50.996;4.754;2023-01-19T11:51:57;27.87;;;17.90;;
8861;SDS011;4799;50.996;4.754;2023-01-19T11:54:38;26.47;;;19.13;;
8861;SDS011;4799;50.996;4.754;2023-01-19T11:57:12;26.57;;;18.97;;
8861;SDS011;4799;50.996;4.754;2023-01-19T11:59:41;25.30;;;19.47;;
8861;SDS011;4799;50.996;4.754;2023-01-19T12:02:12;25.27;;;19.20;;
8861;SDS011;4799;50.996;4.754;2023-01-19T12:04:48;26.13;;;19.20;;
8861;SDS011;4799;50.996;4.754;2023-01-19T12:07:18;24.47;;;18.47;;
8861;SDS011;4799;50.996;4.754;2023-01-19T12:09:51;26.67;;;18.70;;
8861;SDS011;4799;50.996;4.754;2023-01-19T12:12:30;23.33;;;17.67;;
8861;SDS011;4799;50.996;4.754;2023-01-19T12:15:01;21.50;;;17.83;;
8861;SDS011;4799;50.996;4.754;2023-01-19T12:17:32;25.10;;;18.10;;
8861;SDS011;4799;50.996;4.754;2023-01-19T12:20:25;21.53;;;17.63;;
8861;SDS011;4799;50.996;4.754;2023-01-19T12:26:00;24.53;;;17.90;;
8861;SDS011;4799;50.996;4.754;2023-01-19T12:28:40;20.90;;;16.40;;
8861;SDS011;4799;50.996;4.754;2023-01-19T12:31:09;20.13;;;15.87;;
8861;SDS011;4799;50.996;4.754;2023-01-19T12:33:42;21.23;;;16.30;;
8861;SDS011;4799;50.996;4.754;2023-01-19T12:36:09;22.97;;;16.37;;
8861;SDS011;4799;50.996;4.754;2023-01-19T12:46:41;22.60;;;17.57;;
8861;SDS011;4799;50.996;4.754;2023-01-19T12:57:40;22.07;;;16.23;;
8861;SDS011;4799;50.996;4.754;2023-01-19T13:02:54;22.70;;;17.47;;
8861;SDS011;4799;50.996;4.754;2023-01-19T13:13:26;19.27;;;17.17;;
8861;SDS011;4799;50.996;4.754;2023-01-19T13:18:55;21.97;;;17.20;;
8861;SDS011;4799;50.996;4.754;2023-01-19T13:21:27;21.50;;;17.13;;
8861;SDS011;4799;50.996;4.754;2023-01-19T13:24:12;23.47;;;18.00;;
8861;SDS011;4799;50.996;4.754;2023-01-19T13:29:29;22.83;;;17.47;;
8861;SDS011;4799;50.996;4.754;2023-01-19T13:32:14;22.60;;;18.63;;
8861;SDS011;4799;50.996;4.754;2023-01-19T13:34:47;23.70;;;17.80;;
8861;SDS011;4799;50.996;4.754;2023-01-19T13:37:25;19.53;;;16.90;;
8861;SDS011;4799;50.996;4.754;2023-01-19T13:40:01;23.33;;;18.00;;
8861;SDS011;4799;50.996;4.754;2023-01-19T13:42:34;21.43;;;16.97;;
8861;SDS011;4799;50.996;4.754;2023-01-19T13:45:05;21.33;;;17.43;;
8861;SDS011;4799;50.996;4.754;2023-01-19T13:47:42;18.93;;;16.40;;
8861;SDS011;4799;50.996;4.754;2023-01-19T13:52:49;19.87;;;17.63;;
8861;SDS011;4799;50.996;4.754;2023-01-19T13:55:18;21.07;;;16.57;;
8861;SDS011;4799;50.996;4.754;2023-01-19T13:57:45;21.27;;;17.23;;
8861;SDS011;4799;50.996;4.754;2023-01-19T14:03:01;20.00;;;17.27;;
8861;SDS011;4799;50.996;4.754;2023-01-19T14:05:39;20.37;;;17.43;;
8861;SDS011;4799;50.996;4.754;2023-01-19T14:10:36;20.27;;;15.93;;
8861;SDS011;4799;50.996;4.754;2023-01-19T14:13:19;21.53;;;17.17;;
8861;SDS011;4799;50.996;4.754;2023-01-19T14:15:47;19.07;;;16.83;;
8861;SDS011;4799;50.996;4.754;2023-01-19T14:20:57;19.97;;;15.20;;
8861;SDS011;4799;50.996;4.754;2023-01-19T14:23:37;19.17;;;15.47;;
8861;SDS011;4799;50.996;4.754;2023-01-19T14:26:04;19.13;;;15.00;;
8861;SDS011;4799;50.996;4.754;2023-01-19T14:33:57;17.77;;;15.00;;
8861;SDS011;4799;50.996;4.754;2023-01-19T14:39:03;19.50;;;15.67;;
8861;SDS011;4799;50.996;4.754;2023-01-19T14:41:39;20.07;;;15.53;;
8861;SDS011;4799;50.996;4.754;2023-01-19T14:44:33;17.17;;;14.83;;
8861;SDS011;4799;50.996;4.754;2023-01-19T14:47:01;20.73;;;15.83;;
8861;SDS011;4799;50.996;4.754;2023-01-19T14:51:56;19.87;;;14.67;;
8861;SDS011;4799;50.996;4.754;2023-01-19T14:54:26;17.40;;;15.27;;
8861;SDS011;4799;50.996;4.754;2023-01-19T14:56:59;17.20;;;14.67;;
8861;SDS011;4799;50.996;4.754;2023-01-19T14:59:24;19.50;;;15.10;;
8861;SDS011;4799;50.996;4.754;2023-01-19T15:01:50;18.07;;;15.50;;
8861;SDS011;4799;50.996;4.754;2023-01-19T15:04:16;20.43;;;16.40;;
8861;SDS011;4799;50.996;4.754;2023-01-19T15:06:42;18.10;;;16.20;;
8861;SDS011;4799;50.996;4.754;2023-01-19T15:09:13;18.43;;;16.13;;
8861;SDS011;4799;50.996;4.754;2023-01-19T15:11:40;18.33;;;15.93;;
8861;SDS011;4799;50.996;4.754;2023-01-19T15:14:09;20.00;;;16.17;;
8861;SDS011;4799;50.996;4.754;2023-01-19T15:16:38;20.27;;;16.13;;
8861;SDS011;4799;50.996;4.754;2023-01-19T15:19:04;20.70;;;17.27;;
8861;SDS011;4799;50.996;4.754;2023-01-19T15:21:30;18.60;;;15.90;;
8861;SDS011;4799;50.996;4.754;2023-01-19T15:23:56;20.13;;;16.03;;
8861;SDS011;4799;50.996;4.754;2023-01-19T15:26:25;21.03;;;17.30;;
8861;SDS011;4799;50.996;4.754;2023-01-19T15:28:51;19.07;;;16.07;;
8861;SDS011;4799;50.996;4.754;2023-01-19T15:31:17;18.77;;;16.00;;
8861;SDS011;4799;50.996;4.754;2023-01-19T15:33:48;18.87;;;16.57;;
8861;SDS011;4799;50.996;4.754;2023-01-19T15:36:14;17.50;;;15.67;;
8861;SDS011;4799;50.996;4.754;2023-01-19T15:38:41;18.77;;;15.90;;
8861;SDS011;4799;50.996;4.754;2023-01-19T15:41:26;20.23;;;16.93;;
8861;SDS011;4799;50.996;4.754;2023-01-19T15:43:54;18.63;;;16.67;;
8861;SDS011;4799;50.996;4.754;2023-01-19T15:46:21;19.33;;;16.77;;
8861;SDS011;4799;50.996;4.754;2023-01-19T15:48:49;21.23;;;17.30;;
8861;SDS011;4799;50.996;4.754;2023-01-19T15:51:16;19.40;;;17.30;;
8861;SDS011;4799;50.996;4.754;2023-01-19T15:53:44;23.40;;;18.43;;
8861;SDS011;4799;50.996;4.754;2023-01-19T15:56:14;20.10;;;17.57;;
8861;SDS011;4799;50.996;4.754;2023-01-19T15:58:45;20.87;;;16.83;;
8861;SDS011;4799;50.996;4.754;2023-01-19T16:01:12;19.13;;;16.63;;
8861;SDS011;4799;50.996;4.754;2023-01-19T16:03:39;18.60;;;16.10;;
8861;SDS011;4799;50.996;4.754;2023-01-19T16:06:05;20.63;;;17.27;;
8861;SDS011;4799;50.996;4.754;2023-01-19T16:08:31;19.13;;;16.63;;
8861;SDS011;4799;50.996;4.754;2023-01-19T16:11:01;19.93;;;16.57;;
8861;SDS011;4799;50.996;4.754;2023-01-19T16:13:34;19.80;;;16.43;;
8861;SDS011;4799;50.996;4.754;2023-01-19T16:16:23;18.13;;;16.23;;
8861;SDS011;4799;50.996;4.754;2023-01-19T16:18:48;18.30;;;16.17;;
8861;SDS011;4799;50.996;4.754;2023-01-19T16:21:14;22.90;;;18.20;;
8861;SDS011;4799;50.996;4.754;2023-01-19T16:23:39;20.10;;;16.87;;
8861;SDS011;4799;50.996;4.754;2023-01-19T16:26:20;20.50;;;17.20;;
8861;SDS011;4799;50.996;4.754;2023-01-19T16:29:00;24.43;;;17.87;;
8861;SDS011;4799;50.996;4.754;2023-01-19T16:31:35;19.73;;;16.10;;
8861;SDS011;4799;50.996;4.754;2023-01-19T16:34:01;21.63;;;17.33;;
8861;SDS011;4799;50.996;4.754;2023-01-19T16:36:28;20.50;;;17.10;;
8861;SDS011;4799;50.996;4.754;2023-01-19T16:38:59;23.33;;;18.20;;